KCRW/CRW METAR and TAF weather

Enter ICAO airport designator
Station Type Date Time Source
KCRW METAR 2019/02/23 01:54 UTC NOAA

KCRW 230154Z 04003KT 10SM OVC043 06/M01 A3031 RMK AO2 RAE10 SLP269 P0000 T00611006


Station Type Date Time Source
KCRW Decoded METAR 2019/02/23 01:54 UTC NOAA

YEAGER AIRPORT, WV, United States (KCRW) 38-22N 081-36W 309M
Feb 22, 2019 - 08:54 PM EST / 2019.02.23 0154 UTC
Wind: from the NE (040 degrees) at 3 MPH (3 KT):0
Visibility: 10 mile(s):0
Sky conditions: overcast
Precipitation last hour: A trace
Temperature: 43.0 F (6.1 C)
Dew Point: 30.9 F (-0.6 C)
Relative Humidity: 62%
Pressure (altimeter): 30.31 in. Hg (1026 hPa)
ob: KCRW 230154Z 04003KT 10SM OVC043 06/M01 A3031 RMK AO2 RAE10 SLP269 P0000 T00611006
cycle: 2

Station Type Date Time Source
KCRW TAF 2019/02/22 21:51 UTC NOAA

TAF
AMD KCRW 222048Z 2221/2318 07003KT P6SM BKN090 OVC150
FM230900 10004KT P6SM OVC045
FM231200 12007G15KT 6SM RA OVC030


Example: see airport list